Time;durP1;ratioP1;P1;durP2;ratioP2;P2;SDS_P1;SDS_P2;PMS_P1;PMS_P2;Temp;Humidity;BMP_temperature;BMP_pressure;BME280_temperature;BME280_humidity;BME280_pressure;Samples;Min_cycle;Max_cycle;Signal;HPM_P1;HPM_P2
2021/12/19 00:09:20;;;;;;;57.67;23.63;;;;;;;4.44;59.97;96770.31;5053308;28;20059;-65
2021/12/19 00:11:46;;;;;;;67.25;25.48;;;;;;;5.77;56.96;96783.91;5071397;28;20561;-66
2021/12/19 00:14:11;;;;;;;82.30;27.58;;;;;;;6.42;55.10;96799.47;5071665;28;20032;-63
2021/12/19 00:16:36;;;;;;;70.68;24.65;;;;;;;4.26;58.56;96799.34;5070568;28;20408;-65
2021/12/19 00:19:02;;;;;;;61.15;23.85;;;;;;;4.46;59.20;96796.44;5069801;28;20032;-64
2021/12/19 00:21:27;;;;;;;73.57;25.70;;;;;;;3.32;63.14;96808.50;5070550;28;20025;-64
2021/12/19 00:23:54;;;;;;;79.07;25.15;;;;;;;3.29;62.95;96793.16;5071687;28;20414;-64
2021/12/19 00:26:19;;;;;;;61.83;24.98;;;;;;;3.98;61.39;96786.72;5069305;28;20440;-64
2021/12/19 00:28:46;;;;;;;62.55;24.05;;;;;;;3.75;61.67;96803.19;5069551;28;20040;-64
2021/12/19 00:31:12;;;;;;;73.75;25.67;;;;;;;4.19;60.75;96785.44;5070813;28;20666;-65
2021/12/19 00:33:39;;;;;;;65.68;22.83;;;;;;;3.27;64.13;96776.78;5071223;28;20032;-64
2021/12/19 00:36:06;;;;;;;59.97;22.20;;;;;;;2.95;64.51;96794.47;5071184;28;20025;-64
2021/12/19 00:38:31;;;;;;;79.43;27.00;;;;;;;3.93;61.82;96731.28;5069394;28;20032;-66
2021/12/19 00:40:57;;;;;;;70.15;26.23;;;;;;;3.33;63.43;96768.84;5067405;28;20029;-65
2021/12/19 00:43:33;;;;;;;73.35;24.98;;;;;;;4.28;60.69;96751.69;5069590;28;20031;-66
2021/12/19 00:46:05;;;;;;;62.67;24.08;;;;;;;5.35;58.26;96759.53;5070903;28;20106;-64
2021/12/19 00:48:31;;;;;;;58.75;23.50;;;;;;;5.79;56.69;96736.16;5069162;28;20043;-64
2021/12/19 00:50:57;;;;;;;61.50;23.55;;;;;;;5.29;55.81;96771.81;5068733;28;20417;-64
2021/12/19 00:53:22;;;;;;;64.22;23.73;;;;;;;5.10;56.67;96733.38;5070460;28;20028;-64
2021/12/19 00:55:48;;;;;;;75.55;22.55;;;;;;;4.30;59.17;96778.59;5069038;28;20089;-65
2021/12/19 00:58:13;;;;;;;61.65;23.42;;;;;;;4.02;61.63;96772.09;5068862;28;20099;-64
2021/12/19 01:00:39;;;;;;;62.42;23.27;;;;;;;4.20;59.86;96758.09;5070108;28;20025;-66
2021/12/19 01:03:05;;;;;;;64.85;23.63;;;;;;;4.25;60.22;96766.13;5070044;28;20383;-64
2021/12/19 01:05:34;;;;;;;57.42;23.75;;;;;;;5.61;57.44;96769.59;5070720;28;20559;-64
2021/12/19 01:08:00;;;;;;;60.55;23.25;;;;;;;4.69;58.15;96730.59;5070036;28;20032;-64
2021/12/19 01:10:26;;;;;;;76.97;24.67;;;;;;;4.22;59.35;96761.31;5069008;28;20504;-64
2021/12/19 01:12:51;;;;;;;73.38;23.80;;;;;;;4.67;59.14;96759.03;5067743;28;20035;-64
2021/12/19 01:15:18;;;;;;;70.28;24.75;;;;;;;3.99;60.55;96766.47;5070248;28;20028;-64
2021/12/19 01:17:44;;;;;;;67.20;23.52;;;;;;;4.21;60.80;96770.25;5070303;28;20736;-64
2021/12/19 01:20:14;;;;;;;69.78;24.90;;;;;;;3.95;61.36;96726.63;5069407;28;20600;-64
2021/12/19 01:22:40;;;;;;;71.95;24.42;;;;;;;5.09;58.95;96761.59;5069929;28;20029;-64
2021/12/19 01:25:06;;;;;;;65.47;24.42;;;;;;;5.24;57.75;96755.06;5069774;28;20657;-64
2021/12/19 01:27:31;;;;;;;63.70;24.67;;;;;;;5.36;57.62;96761.13;5067440;28;20032;-64
2021/12/19 01:29:56;;;;;;;66.22;22.10;;;;;;;3.11;63.88;96760.53;5069086;28;20102;-65
2021/12/19 01:32:22;;;;;;;58.15;22.60;;;;;;;3.63;62.75;96731.25;5070027;28;20519;-64
2021/12/19 01:34:47;;;;;;;74.88;22.30;;;;;;;2.65;65.03;96705.75;5069862;28;20032;-64
2021/12/19 01:37:13;;;;;;;57.25;23.38;;;;;;;3.91;62.53;96728.91;5069994;28;20120;-64
2021/12/19 01:39:38;;;;;;;64.43;23.95;;;;;;;4.08;60.62;96750.13;5068578;28;20017;-64
2021/12/19 01:42:10;;;;;;;60.13;23.65;;;;;;;3.85;61.17;96727.16;5067317;28;20032;-64
2021/12/19 01:44:36;;;;;;;64.38;23.75;;;;;;;3.40;63.48;96758.25;5069749;28;20481;-64
2021/12/19 01:47:02;;;;;;;59.00;21.27;;;;;;;3.23;62.86;96755.38;5069701;28;20020;-64
2021/12/19 01:49:28;;;;;;;68.47;24.58;;;;;;;3.99;61.45;96722.50;5069191;28;20035;-64
2021/12/19 01:51:53;;;;;;;64.38;25.20;;;;;;;4.29;60.31;96759.38;5068316;28;20381;-64
2021/12/19 01:54:19;;;;;;;66.25;25.30;;;;;;;4.60;58.57;96752.25;5068523;28;20493;-64
2021/12/19 01:56:44;;;;;;;64.65;23.20;;;;;;;4.07;59.85;96759.06;5066596;28;20099;-64
2021/12/19 01:59:10;;;;;;;62.67;25.65;;;;;;;4.44;59.70;96729.97;5067642;28;20730;-64
2021/12/19 02:01:48;;;;;;;68.03;25.35;;;;;;;5.31;57.51;96758.38;5069420;28;20025;-64
2021/12/19 02:04:15;;;;;;;63.28;24.10;;;;;;;5.14;56.78;96743.25;5069673;28;20028;-65
2021/12/19 02:06:41;;;;;;;62.60;22.92;;;;;;;3.91;59.98;96759.69;5069481;28;20031;-65
2021/12/19 02:09:07;;;;;;;58.47;24.23;;;;;;;4.03;59.95;96728.94;5068747;28;20028;-65
2021/12/19 02:11:34;;;;;;;63.35;25.10;;;;;;;4.57;58.57;96724.53;5065808;28;20035;-65
2021/12/19 02:14:00;;;;;;;59.42;24.40;;;;;;;4.45;58.72;96752.66;5067641;28;20020;-65
2021/12/19 02:16:26;;;;;;;70.30;24.73;;;;;;;4.77;57.70;96732.13;5069251;28;20101;-65
2021/12/19 02:18:51;;;;;;;56.50;23.15;;;;;;;4.51;57.92;96751.78;5069054;28;20098;-65
2021/12/19 02:21:17;;;;;;;56.70;23.38;;;;;;;3.21;61.84;96756.63;5069038;28;20102;-66
2021/12/19 02:23:42;;;;;;;62.38;23.65;;;;;;;2.96;62.79;96720.63;5069349;28;20035;-65
2021/12/19 02:26:08;;;;;;;68.65;24.48;;;;;;;3.70;60.72;96716.22;5068854;28;20025;-65
2021/12/19 02:28:33;;;;;;;64.97;24.80;;;;;;;3.71;60.29;96732.81;5065163;28;20394;-65
2021/12/19 02:30:59;;;;;;;69.32;26.17;;;;;;;4.50;59.12;96755.41;5068700;28;20032;-64
2021/12/19 02:33:27;;;;;;;72.50;26.20;;;;;;;5.02;56.77;96745.09;5069221;28;20028;-64
2021/12/19 02:36:08;;;;;;;65.60;26.50;;;;;;;4.22;59.23;96742.88;5069420;28;20428;-63
2021/12/19 02:49:23;;;;;;;66.28;23.92;;;;;;;3.85;59.81;96735.06;5068601;28;20086;-63
2021/12/19 02:51:51;;;;;;;62.97;24.08;;;;;;;3.82;59.23;96692.56;5069144;28;20028;-64
2021/12/19 02:54:16;;;;;;;76.22;24.10;;;;;;;3.64;60.86;96733.69;5069091;28;20035;-66
2021/12/19 02:56:42;;;;;;;71.95;25.17;;;;;;;3.65;60.41;96706.34;5066105;28;20040;-63
2021/12/19 02:59:07;;;;;;;74.13;26.35;;;;;;;3.85;60.46;96698.19;5065761;28;20162;-66
2021/12/19 03:01:33;;;;;;;79.88;27.02;;;;;;;4.11;60.16;96738.38;5067412;28;20496;-64
2021/12/19 03:03:58;;;;;;;68.88;25.15;;;;;;;4.63;58.50;96749.16;5069026;28;20036;-66
2021/12/19 03:06:24;;;;;;;68.05;24.33;;;;;;;3.22;62.28;96735.34;5069098;28;20174;-65
2021/12/19 03:08:51;;;;;;;70.65;24.55;;;;;;;3.27;62.41;96718.91;5068542;28;20024;-65
2021/12/19 03:19:43;;;;;;;76.45;25.85;;;;;;;4.97;56.97;96694.88;5044585;28;20029;-65
2021/12/19 03:22:08;;;;;;;68.28;24.02;;;;;;;4.11;58.16;96738.38;5069176;28;20667;-65
2021/12/19 03:24:34;;;;;;;72.45;24.52;;;;;;;3.38;60.53;96716.38;5068927;28;20060;-63
2021/12/19 03:26:59;;;;;;;70.55;26.27;;;;;;;4.10;59.24;96705.97;5070444;28;20467;-65
2021/12/19 03:29:24;;;;;;;66.38;25.23;;;;;;;4.97;57.40;96718.59;5070502;28;20021;-65
2021/12/19 03:31:50;;;;;;;65.53;24.00;;;;;;;3.67;60.50;96710.59;5072420;28;20024;-64
2021/12/19 03:34:15;;;;;;;68.38;25.00;;;;;;;3.40;61.19;96687.22;5072454;28;20052;-65
2021/12/19 03:36:41;;;;;;;68.80;24.45;;;;;;;3.53;61.05;96683.63;5072419;28;20028;-63
2021/12/19 03:39:14;;;;;;;73.72;26.27;;;;;;;3.52;61.29;96651.25;5071563;28;20020;-64
2021/12/19 03:41:41;;;;;;;77.43;24.60;;;;;;;3.27;62.13;96676.84;5070372;28;20031;-64
2021/12/19 03:44:07;;;;;;;70.50;25.50;;;;;;;3.63;61.07;96671.56;5069649;28;20052;-64
2021/12/19 03:46:32;;;;;;;83.75;26.33;;;;;;;2.47;64.56;96675.00;5072159;28;20063;-63
2021/12/19 03:48:58;;;;;;;80.45;24.65;;;;;;;2.82;64.57;96703.41;5069957;28;20021;-64
2021/12/19 03:51:24;;;;;;;76.72;27.00;;;;;;;3.74;61.55;96701.59;5070733;28;20023;-64
2021/12/19 03:53:50;;;;;;;80.15;27.40;;;;;;;4.17;60.55;96688.22;5070675;28;20375;-64
2021/12/19 03:56:15;;;;;;;81.50;27.17;;;;;;;4.18;59.80;96681.94;5071533;28;20033;-64
2021/12/19 03:58:41;;;;;;;72.72;25.00;;;;;;;2.64;63.34;96669.19;5069032;28;20115;-65
2021/12/19 04:01:09;;;;;;;82.18;26.60;;;;;;;3.71;61.40;96674.91;5070206;28;20200;-64
2021/12/19 04:03:34;;;;;;;71.28;25.10;;;;;;;4.37;58.58;96689.78;5070996;28;20557;-64
2021/12/19 04:06:00;;;;;;;75.10;26.13;;;;;;;4.00;57.03;96610.91;5070204;28;20021;-63
2021/12/19 04:08:26;;;;;;;65.80;24.23;;;;;;;4.33;57.30;96668.34;5071331;28;20107;-64
2021/12/19 04:10:53;;;;;;;67.22;23.02;;;;;;;3.77;58.09;96668.75;5070524;28;20470;-64
2021/12/19 04:13:20;;;;;;;66.85;24.40;;;;;;;3.31;60.69;96670.94;5067867;28;20029;-65
2021/12/19 04:15:48;;;;;;;65.57;24.63;;;;;;;3.59;60.44;96685.38;5071396;28;20033;-64
2021/12/19 04:18:14;;;;;;;73.07;26.05;;;;;;;4.25;58.81;96667.84;5071227;28;20481;-64
2021/12/19 04:20:39;;;;;;;62.88;22.63;;;;;;;3.02;61.95;96683.00;5069547;28;20037;-64
2021/12/19 04:23:05;;;;;;;70.13;23.90;;;;;;;2.96;62.21;96644.41;5071589;28;20083;-64
2021/12/19 04:25:30;;;;;;;72.93;25.75;;;;;;;2.89;62.35;96650.78;5071050;28;20188;-64
2021/12/19 04:27:56;;;;;;;67.68;25.50;;;;;;;3.25;62.13;96652.59;5067137;28;20025;-64
2021/12/19 04:30:24;;;;;;;72.32;25.40;;;;;;;4.18;59.40;96671.41;5068803;28;20090;-64
2021/12/19 04:33:24;;;;;;;71.22;24.63;;;;;;;4.59;58.10;96653.94;5071212;28;20059;-65
2021/12/19 04:35:45;;;;;;;71.53;25.13;;;;;;;5.26;56.00;96644.81;5068986;28;20036;-64
2021/12/19 04:52:20;;;;;;;60.15;20.27;;;;;;;2.24;64.60;96645.88;5071226;28;20120;-64
2021/12/19 04:54:58;;;;;;;53.75;20.00;;;;;;;1.93;65.31;96655.41;5070891;28;20032;-64
2021/12/19 05:15:52;;;;;;;55.28;22.98;;;;;;;3.79;58.06;96608.81;5070410;28;20122;-64
2021/12/19 05:18:21;;;;;;;60.45;24.58;;;;;;;3.19;60.54;96627.19;5069785;28;20025;-64
2021/12/19 05:21:11;;;;;;;52.78;21.10;;;;;;;2.24;64.46;96623.06;5069756;28;20078;-64
2021/12/19 05:26:12;;;;;;;64.00;24.88;;;;;;;3.43;60.11;96599.16;5069634;28;20024;-65
2021/12/19 05:28:38;;;;;;;52.92;23.17;;;;;;;3.16;60.68;96598.69;5067157;28;20112;-64
2021/12/19 05:31:03;;;;;;;56.00;23.40;;;;;;;3.05;60.65;96595.00;5060017;28;20111;-65
2021/12/19 05:33:29;;;;;;;55.90;24.63;;;;;;;3.19;61.27;96614.03;5068748;28;20103;-64
2021/12/19 05:45:11;;;;;;;49.58;23.55;;;;;;;3.59;59.71;96635.41;5066564;28;20040;-64
2021/12/19 05:46:55;;;;;;;48.72;19.67;;;;;;;2.52;62.43;96645.47;5069746;28;20029;-65
2021/12/19 05:49:20;;;;;;;46.72;21.92;;;;;;;2.32;63.48;96624.63;5067469;28;20094;-65
2021/12/19 05:51:46;;;;;;;50.45;23.88;;;;;;;3.10;61.49;96645.88;5069745;28;20112;-65
2021/12/19 05:54:12;;;;;;;46.40;23.15;;;;;;;2.82;62.29;96643.78;5069917;28;20048;-65
2021/12/19 05:56:38;;;;;;;51.25;23.20;;;;;;;2.19;64.21;96611.59;5069510;28;20083;-65
2021/12/19 05:59:03;;;;;;;54.15;21.70;;;;;;;2.37;63.81;96601.16;5059281;28;20070;-63
2021/12/19 06:01:29;;;;;;;47.42;23.10;;;;;;;3.32;61.76;96613.88;5067915;28;20067;-65
2021/12/19 06:03:54;;;;;;;57.78;25.20;;;;;;;4.07;58.64;96611.59;5068130;28;20025;-65
2021/12/19 06:06:20;;;;;;;52.40;23.25;;;;;;;3.24;60.62;96601.03;5068363;28;20510;-65
2021/12/19 06:08:46;;;;;;;50.03;22.25;;;;;;;2.46;62.63;96594.63;5069055;28;20036;-65
2021/12/19 06:11:11;;;;;;;54.40;23.33;;;;;;;3.27;61.21;96605.84;5068505;28;20111;-65
2021/12/19 06:13:37;;;;;;;53.25;23.55;;;;;;;3.62;59.38;96608.63;5065783;28;20032;-65
2021/12/19 06:16:04;;;;;;;44.38;22.38;;;;;;;3.17;61.23;96616.06;5067804;28;20031;-65
2021/12/19 06:18:29;;;;;;;47.17;22.27;;;;;;;3.01;61.68;96620.91;5069134;28;20024;-65
2021/12/19 06:20:55;;;;;;;51.55;24.10;;;;;;;3.44;60.69;96606.06;5067377;28;20024;-63
2021/12/19 06:23:21;;;;;;;46.42;21.55;;;;;;;2.98;61.36;96631.88;5069677;28;20031;-66
2021/12/19 06:25:46;;;;;;;48.75;23.85;;;;;;;4.10;59.03;96621.69;5067650;28;20162;-65
2021/12/19 06:28:16;;;;;;;45.17;21.45;;;;;;;3.87;58.34;96613.72;5067515;28;20146;-65
2021/12/19 06:30:42;;;;;;;45.40;20.52;;;;;;;2.66;62.16;96615.41;5066194;28;20020;-65
2021/12/19 06:33:08;;;;;;;46.28;21.90;;;;;;;2.04;64.68;96596.97;5069202;28;20474;-64
2021/12/19 06:35:33;;;;;;;54.33;24.27;;;;;;;3.31;60.65;96599.91;5068242;28;20029;-64
2021/12/19 06:37:59;;;;;;;43.08;22.45;;;;;;;3.92;58.79;96600.69;5067839;28;20039;-66
2021/12/19 06:40:24;;;;;;;45.40;21.33;;;;;;;3.14;61.00;96612.06;5066962;28;20025;-63
2021/12/19 06:42:50;;;;;;;38.60;18.52;;;;;;;2.65;62.60;96602.50;5068566;28;20119;-63
2021/12/19 06:45:18;;;;;;;38.33;19.65;;;;;;;3.32;59.92;96591.00;5059767;28;20032;-65
2021/12/19 06:47:43;;;;;;;42.05;21.58;;;;;;;3.23;61.00;96594.19;5068947;28;20125;-63
2021/12/19 06:50:09;;;;;;;37.97;19.20;;;;;;;2.57;62.47;96611.47;5068614;28;20481;-62
2021/12/19 06:52:36;;;;;;;40.45;20.77;;;;;;;2.69;61.27;96583.47;5069224;28;20025;-63
2021/12/19 06:55:03;;;;;;;37.85;18.77;;;;;;;2.06;64.05;96607.28;5067779;28;20029;-63
2021/12/19 06:57:28;;;;;;;39.63;20.48;;;;;;;3.12;62.68;96600.97;5068682;28;20036;-63
2021/12/19 06:59:54;;;;;;;43.10;22.25;;;;;;;3.16;60.67;96567.16;5067533;28;20051;-63
2021/12/19 07:02:19;;;;;;;41.17;22.25;;;;;;;3.53;60.11;96594.16;5072767;28;20033;-62
2021/12/19 07:04:44;;;;;;;36.17;19.48;;;;;;;3.01;60.90;96586.72;5072981;28;20389;-63
2021/12/19 07:07:10;;;;;;;36.65;20.02;;;;;;;3.67;59.89;96592.16;5071729;28;20048;-67
2021/12/19 07:09:36;;;;;;;34.97;19.48;;;;;;;3.45;58.82;96555.84;5071362;28;20368;-65
2021/12/19 07:12:02;;;;;;;30.95;18.88;;;;;;;3.90;58.42;96587.78;5072361;28;20707;-65
2021/12/19 07:14:28;;;;;;;31.77;17.90;;;;;;;3.53;57.98;96558.16;5071431;28;20056;-68
2021/12/19 07:16:53;;;;;;;25.67;17.10;;;;;;;2.68;60.62;96554.78;5072669;28;20067;-64
2021/12/19 07:19:18;;;;;;;30.02;18.05;;;;;;;3.43;58.47;96563.16;5071622;28;20063;-63
2021/12/19 07:21:44;;;;;;;29.08;17.85;;;;;;;2.51;61.89;96584.25;5071178;28;20029;-64
2021/12/19 07:24:09;;;;;;;32.60;18.70;;;;;;;2.58;61.85;96582.34;5072568;28;20378;-63
2021/12/19 07:26:35;;;;;;;30.10;17.83;;;;;;;1.92;64.00;96561.16;5072637;28;20037;-63
2021/12/19 07:29:00;;;;;;;32.90;19.13;;;;;;;2.87;61.52;96585.31;5068889;28;20029;-64
2021/12/19 07:31:29;;;;;;;32.58;19.25;;;;;;;3.30;59.87;96577.28;5071833;28;20040;-63
2021/12/19 07:33:54;;;;;;;32.25;18.85;;;;;;;3.23;59.40;96573.16;5072329;28;20028;-63
2021/12/19 07:36:24;;;;;;;32.35;20.00;;;;;;;3.10;59.54;96532.84;5071196;28;20466;-63
2021/12/19 07:38:59;;;;;;;35.40;20.70;;;;;;;3.74;58.70;96572.63;5072020;28;20040;-64
2021/12/19 07:41:25;;;;;;;33.35;20.27;;;;;;;3.61;58.20;96570.19;5070487;28;21161;-64
2021/12/19 07:43:50;;;;;;;30.73;18.00;;;;;;;2.74;61.02;96572.28;5068189;28;20382;-64
2021/12/19 07:46:16;;;;;;;36.72;20.83;;;;;;;2.67;62.07;96577.63;5072015;28;20056;-63
2021/12/19 07:48:41;;;;;;;30.63;17.65;;;;;;;2.17;63.64;96572.44;5071757;28;20033;-64
2021/12/19 07:51:07;;;;;;;34.67;19.73;;;;;;;2.46;62.53;96586.72;5071661;28;20111;-63
2021/12/19 07:53:32;;;;;;;35.55;21.92;;;;;;;3.50;59.83;96587.53;5072062;28;20040;-64
2021/12/19 07:55:59;;;;;;;30.10;19.63;;;;;;;3.43;58.65;96547.38;5071838;28;20032;-64
2021/12/19 07:58:25;;;;;;;33.72;18.42;;;;;;;2.45;61.95;96540.47;5069963;28;20032;-64
2021/12/19 08:00:50;;;;;;;29.95;18.92;;;;;;;1.97;63.28;96521.94;5070044;28;20029;-64
2021/12/19 08:03:15;;;;;;;32.65;19.77;;;;;;;2.40;62.95;96556.06;5071907;28;20024;-64
2021/12/19 08:05:41;;;;;;;36.97;21.27;;;;;;;2.36;62.82;96544.41;5070281;28;20089;-64
2021/12/19 08:08:06;;;;;;;35.65;21.10;;;;;;;2.77;61.75;96533.25;5071154;28;20500;-64
2021/12/19 08:13:03;;;;;;;31.25;16.90;;;;;;;2.11;64.02;96557.56;5069570;28;21148;-64
2021/12/19 08:15:28;;;;;;;35.22;20.42;;;;;;;3.58;60.53;96553.03;5068914;28;20444;-64
2021/12/19 08:17:53;;;;;;;30.80;18.73;;;;;;;2.75;61.39;96532.66;5069982;28;20028;-63
2021/12/19 08:20:19;;;;;;;24.55;15.35;;;;;;;2.26;63.24;96536.22;5070734;28;20079;-63
2021/12/19 08:22:47;;;;;;;29.00;18.95;;;;;;;3.54;59.21;96538.72;5070227;28;20032;-65
2021/12/19 08:25:13;;;;;;;29.92;19.00;;;;;;;4.55;56.61;96515.75;5071538;28;20141;-64
2021/12/19 08:27:38;;;;;;;24.58;18.15;;;;;;;4.07;55.84;96526.56;5071515;28;20099;-64
2021/12/19 08:30:06;;;;;;;25.00;17.73;;;;;;;4.09;56.22;96533.19;5069015;28;20033;-64
2021/12/19 08:32:31;;;;;;;23.25;17.35;;;;;;;4.00;56.60;96531.13;5070996;28;20032;-65
2021/12/19 08:34:57;;;;;;;25.85;17.30;;;;;;;3.37;57.96;96533.28;5071235;28;20046;-65
2021/12/19 08:37:22;;;;;;;26.88;17.80;;;;;;;3.75;56.96;96505.00;5070951;28;20490;-65
2021/12/19 08:39:47;;;;;;;27.25;18.40;;;;;;;3.65;56.79;96511.63;5068995;28;20021;-65
2021/12/19 08:42:14;;;;;;;24.83;17.60;;;;;;;3.65;57.40;96535.31;5069058;28;20115;-65
2021/12/19 08:44:39;;;;;;;25.80;17.55;;;;;;;3.73;57.09;96509.69;5069515;28;20058;-64
2021/12/19 08:47:06;;;;;;;24.13;18.10;;;;;;;5.12;53.06;96529.03;5070819;28;20060;-64
2021/12/19 08:49:31;;;;;;;28.80;18.85;;;;;;;4.84;54.27;96537.69;5069699;28;20040;-65
2021/12/19 08:51:57;;;;;;;25.38;17.63;;;;;;;5.16;53.05;96527.50;5069281;28;20031;-64
2021/12/19 08:54:22;;;;;;;22.17;17.00;;;;;;;5.05;51.92;96517.81;5071004;28;20115;-64
2021/12/19 08:56:49;;;;;;;23.17;17.30;;;;;;;4.60;53.19;96510.59;5068830;28;20115;-65
2021/12/19 08:59:15;;;;;;;25.02;18.52;;;;;;;4.97;52.93;96505.00;5067014;28;20068;-65
2021/12/19 09:01:40;;;;;;;23.88;17.80;;;;;;;5.13;52.33;96506.09;5070795;28;20052;-65
2021/12/19 09:04:06;;;;;;;22.70;17.25;;;;;;;5.00;51.92;96495.81;5069357;28;20024;-64
2021/12/19 09:06:31;;;;;;;23.38;17.48;;;;;;;5.39;52.30;96504.72;5070637;28;20036;-64
2021/12/19 09:08:56;;;;;;;22.77;16.52;;;;;;;5.60;51.20;96496.09;5067865;28;20028;-63
2021/12/19 09:11:22;;;;;;;23.17;16.58;;;;;;;5.14;52.68;96505.84;5070564;28;20035;-64
2021/12/19 09:13:48;;;;;;;24.83;17.67;;;;;;;3.84;55.98;96520.25;5067326;28;20119;-64
2021/12/19 09:16:13;;;;;;;22.50;17.60;;;;;;;3.59;55.90;96407.28;5069121;28;20493;-62
2021/12/19 09:18:39;;;;;;;21.63;16.83;;;;;;;5.10;52.85;96510.00;5070220;28;20111;-62
2021/12/19 09:21:04;;;;;;;24.52;17.23;;;;;;;5.00;53.62;96488.69;5070315;28;20025;-66
2021/12/19 09:23:30;;;;;;;21.42;16.38;;;;;;;4.82;53.68;96475.72;5069822;28;20032;-66
2021/12/19 09:25:55;;;;;;;22.35;16.80;;;;;;;5.64;51.98;96484.03;5069211;28;20032;-65
2021/12/19 09:28:20;;;;;;;21.60;16.90;;;;;;;6.01;50.93;96462.44;5061136;28;20041;-66
2021/12/19 09:30:46;;;;;;;22.10;15.70;;;;;;;5.13;52.45;96485.00;5067177;28;20025;-66
2021/12/19 09:33:12;;;;;;;23.95;17.27;;;;;;;4.84;53.11;96463.09;5068882;28;20067;-64
2021/12/19 09:35:38;;;;;;;21.50;15.93;;;;;;;4.63;53.58;96483.78;5070172;28;20110;-65
2021/12/19 09:38:05;;;;;;;23.35;16.83;;;;;;;4.94;52.97;96476.47;5070256;28;20059;-63
2021/12/19 09:40:34;;;;;;;20.25;15.60;;;;;;;5.26;52.75;96486.53;5069650;28;20021;-63
2021/12/19 09:43:04;;;;;;;20.55;15.00;;;;;;;4.73;53.27;96493.72;5069665;28;20074;-65
2021/12/19 09:45:31;;;;;;;20.98;13.57;;;;;;;3.55;56.68;96494.78;5061894;28;20445;-64
2021/12/19 09:47:58;;;;;;;21.45;14.18;;;;;;;3.57;56.94;96495.34;5070248;28;20024;-75
2021/12/19 09:50:24;;;;;;;23.65;15.68;;;;;;;3.47;56.76;96434.59;5068174;28;20107;-64
2021/12/19 09:52:50;;;;;;;20.58;15.50;;;;;;;4.68;54.94;96485.72;5069015;28;20029;-62
2021/12/19 09:55:19;;;;;;;21.08;14.63;;;;;;;3.63;56.54;96465.50;5068841;28;20048;-63
2021/12/19 09:57:45;;;;;;;16.50;11.48;;;;;;;3.62;56.63;96467.34;5069580;28;20028;-62
2021/12/19 10:00:11;;;;;;;23.85;16.05;;;;;;;4.09;56.11;96461.28;5066693;28;20025;-63
2021/12/19 10:02:37;;;;;;;21.63;16.40;;;;;;;4.19;56.34;96450.97;5069847;28;20497;-65
2021/12/19 10:05:20;;;;;;;22.40;14.63;;;;;;;4.00;56.04;96418.72;5069939;28;20029;-67
2021/12/19 10:07:46;;;;;;;;;;;;;;;3.89;56.85;96438.78;5068988;28;20115;-64
2021/12/19 10:10:13;;;;;;;19.17;13.02;;;;;;;3.37;57.89;96438.59;5067656;28;19924;-63
2021/12/19 10:15:41;;;;;;;20.33;14.53;;;;;;;3.75;57.34;96439.22;5067710;28;20021;-63
2021/12/19 10:18:15;;;;;;;19.58;13.25;;;;;;;3.53;58.29;96431.06;5051927;28;20831;-63
2021/12/19 10:20:47;;;;;;;22.02;14.93;;;;;;;3.25;58.87;96423.84;5069221;28;20029;-62
2021/12/19 10:23:28;;;;;;;16.08;12.40;;;;;;;3.42;58.43;96414.25;5068284;28;20501;-65
2021/12/19 10:26:09;;;;;;;22.42;14.35;;;;;;;3.82;57.51;96393.31;5069450;28;20039;-63
2021/12/19 10:28:55;;;;;;;20.42;14.38;;;;;;;3.99;56.91;96396.03;5067673;28;20112;-64
2021/12/19 10:31:22;;;;;;;20.65;14.82;;;;;;;3.96;57.22;96361.50;5063965;28;20025;-65
2021/12/19 10:33:48;;;;;;;15.68;10.68;;;;;;;3.27;58.88;96363.91;5069225;28;20420;-64
2021/12/19 10:36:14;;;;;;;23.08;13.52;;;;;;;3.44;58.87;96338.56;5071775;28;20027;-64
2021/12/19 10:38:49;;;;;;;18.67;11.13;;;;;;;3.42;59.36;96376.63;5072884;28;20021;-64
2021/12/19 10:41:20;;;;;;;23.95;14.38;;;;;;;4.14;57.00;96362.13;5072840;28;20028;-65
2021/12/19 10:44:00;;;;;;;20.25;14.73;;;;;;;4.40;56.02;96331.84;5071378;28;20027;-68
2021/12/19 10:46:28;;;;;;;18.83;13.50;;;;;;;4.34;55.80;96329.31;5070558;28;20484;-67
2021/12/19 10:48:54;;;;;;;19.60;13.65;;;;;;;4.72;55.69;96322.66;5072027;28;20104;-62
2021/12/19 10:51:20;;;;;;;18.85;13.30;;;;;;;4.72;53.93;96285.75;5071224;28;20115;-66
2021/12/19 10:53:54;;;;;;;15.80;13.48;;;;;;;6.10;52.05;96330.75;5072874;28;20013;-64
2021/12/19 10:56:21;;;;;;;17.75;12.57;;;;;;;6.15;50.64;96334.25;5072719;28;20028;-64
2021/12/19 10:58:53;;;;;;;15.90;13.07;;;;;;;5.81;52.06;96325.59;5070550;28;20017;-64
2021/12/19 11:01:37;;;;;;;16.55;12.77;;;;;;;4.73;54.74;96329.50;5069873;28;20032;-63
2021/12/19 11:04:12;;;;;;;12.00;8.65;;;;;;;4.36;56.00;96330.69;5072757;28;20064;-63
2021/12/19 11:06:42;;;;;;;16.73;11.20;;;;;;;4.30;56.46;96318.47;5072757;28;20029;-63
2021/12/19 11:09:12;;;;;;;13.95;10.60;;;;;;;4.69;55.09;96302.81;5070469;28;20426;-63
2021/12/19 11:11:51;;;;;;;18.60;14.18;;;;;;;5.89;52.11;96284.78;5079250;22;20078;-61
2021/12/19 11:14:18;;;;;;;16.05;12.32;;;;;;;6.39;50.29;96292.50;5070394;28;20540;-61
2021/12/19 11:16:48;;;;;;;14.32;12.68;;;;;;;6.80;50.50;96286.81;5054445;28;20131;-62
2021/12/19 11:19:13;;;;;;;11.10;9.73;;;;;;;6.18;51.45;96280.13;5052327;28;20029;-60
2021/12/19 11:21:39;;;;;;;14.23;11.60;;;;;;;6.50;50.24;96269.63;5072619;28;20048;-65
2021/12/19 11:24:14;;;;;;;16.30;11.30;;;;;;;6.31;50.51;96248.03;5072236;28;20108;-65
2021/12/19 11:26:43;;;;;;;12.82;11.35;;;;;;;6.70;50.09;96258.41;5072231;28;20025;-65
2021/12/19 11:29:09;;;;;;;13.65;11.55;;;;;;;6.83;49.74;96254.56;5064939;28;20055;-66
2021/12/19 11:31:35;;;;;;;15.88;10.95;;;;;;;6.32;51.08;96288.47;5045377;28;20021;-64
2021/12/19 11:34:04;;;;;;;14.15;11.55;;;;;;;6.53;51.32;96276.25;5072801;28;20027;-65
2021/12/19 11:36:36;;;;;;;12.75;11.23;;;;;;;6.80;50.59;96261.16;5072656;28;20028;-65
2021/12/19 11:39:03;;;;;;;;;;;;;;;6.46;51.05;96263.25;5071806;28;20032;-65
2021/12/19 11:41:28;;;;;;;13.95;10.80;;;;;;;6.77;49.09;96232.59;5053807;28;19913;-66
2021/12/19 11:43:56;;;;;;;16.38;12.10;;;;;;;7.28;48.83;96201.97;5047290;28;20039;-66
2021/12/19 11:46:45;;;;;;;13.40;11.98;;;;;;;7.80;48.29;96232.13;5052885;28;20116;-65
2021/12/19 11:49:20;;;;;;;15.32;10.60;;;;;;;6.68;50.77;96239.38;5071096;28;20024;-64
2021/12/19 11:51:46;;;;;;;14.13;10.93;;;;;;;7.93;47.21;96193.75;5071680;28;20108;-65
2021/12/19 11:54:18;;;;;;;13.27;11.80;;;;;;;8.87;46.28;96213.78;5071713;28;20100;-64
2021/12/19 11:57:09;;;;;;;12.23;10.95;;;;;;;8.83;45.93;96213.50;5071688;28;20078;-63
2021/12/19 11:59:36;;;;;;;12.10;10.88;;;;;;;8.50;47.12;96200.78;5045154;28;20036;-62
2021/12/19 12:02:24;;;;;;;11.95;10.43;;;;;;;8.68;46.68;96200.25;5062831;28;20677;-63
2021/12/19 12:05:14;;;;;;;11.20;10.00;;;;;;;6.85;50.51;96200.38;5071858;28;20425;-64
2021/12/19 12:08:04;;;;;;;11.38;9.85;;;;;;;7.81;48.96;96189.47;5053543;28;20119;-64
2021/12/19 12:10:49;;;;;;;14.45;10.50;;;;;;;8.38;48.07;96194.94;5070958;28;20497;-64
2021/12/19 12:13:25;;;;;;;13.27;11.35;;;;;;;8.67;47.39;96166.06;5048986;28;20077;-64
2021/12/19 12:15:59;;;;;;;13.98;10.82;;;;;;;8.33;47.69;96171.84;5068362;28;20040;-65
2021/12/19 12:18:35;;;;;;;12.57;11.05;;;;;;;8.05;48.61;96157.22;5051166;28;20033;-65
2021/12/19 12:21:28;;;;;;;12.70;10.80;;;;;;;8.06;49.22;96169.41;5033053;28;20025;-65
2021/12/19 12:24:02;;;;;;;17.75;11.18;;;;;;;7.33;50.84;96166.81;5033477;28;20387;-65
2021/12/19 12:26:53;;;;;;;10.65;9.02;;;;;;;6.62;51.95;96116.94;5051228;28;20044;-64
2021/12/19 12:29:20;;;;;;;13.47;8.57;;;;;;;6.38;53.72;96145.56;5044324;28;20371;-67
2021/12/19 12:31:46;;;;;;;13.98;10.45;;;;;;;7.37;51.84;96135.31;5043555;28;20057;-64
2021/12/19 12:34:15;;;;;;;9.63;6.85;;;;;;;6.62;52.86;96127.50;5053201;28;20028;-64
2021/12/19 12:36:41;;;;;;;10.70;7.93;;;;;;;6.83;53.06;96125.78;5071088;28;20035;-64
2021/12/19 12:39:11;;;;;;;10.07;8.60;;;;;;;7.14;52.98;96110.88;5070203;28;20036;-64
2021/12/19 12:44:10;;;;;;;9.77;8.80;;;;;;;7.42;51.70;96079.72;5068509;28;20479;-65
2021/12/19 12:46:36;;;;;;;9.80;7.80;;;;;;;7.64;51.54;96104.16;5061783;28;20032;-65
2021/12/19 12:49:23;;;;;;;12.43;8.93;;;;;;;7.76;51.44;96093.34;5069640;28;20032;-64